sensor_id;sensor_type;location;lat;lon;timestamp;temperature;humidity
22383;DHT22;11359;45.802;13.530;2022-09-09T05:10:40;22.80;78.20
22383;DHT22;11359;45.802;13.530;2022-09-09T05:13:07;22.80;78.30
22383;DHT22;11359;45.802;13.530;2022-09-09T05:15:33;22.90;78.30
22383;DHT22;11359;45.802;13.530;2022-09-09T05:18:00;22.90;78.30
22383;DHT22;11359;45.802;13.530;2022-09-09T05:20:26;22.90;78.30
22383;DHT22;11359;45.802;13.530;2022-09-09T05:22:56;23.00;78.30
22383;DHT22;11359;45.802;13.530;2022-09-09T05:25:22;23.00;79.20
22383;DHT22;11359;45.802;13.530;2022-09-09T05:27:51;23.00;78.40
22383;DHT22;11359;45.802;13.530;2022-09-09T05:30:17;23.10;78.30
22383;DHT22;11359;45.802;13.530;2022-09-09T05:32:44;23.10;78.20
22383;DHT22;11359;45.802;13.530;2022-09-09T05:35:10;23.20;78.10
22383;DHT22;11359;45.802;13.530;2022-09-09T05:37:35;23.20;77.90
22383;DHT22;11359;45.802;13.530;2022-09-09T05:40:01;23.30;77.80
22383;DHT22;11359;45.802;13.530;2022-09-09T05:42:31;23.30;77.60
22383;DHT22;11359;45.802;13.530;2022-09-09T05:44:57;23.30;77.40
22383;DHT22;11359;45.802;13.530;2022-09-09T05:47:23;23.30;77.30
22383;DHT22;11359;45.802;13.530;2022-09-09T05:49:49;23.30;77.10
22383;DHT22;11359;45.802;13.530;2022-09-09T05:52:15;23.30;77.00
22383;DHT22;11359;45.802;13.530;2022-09-09T05:54:40;23.30;76.80
22383;DHT22;11359;45.802;13.530;2022-09-09T05:57:08;23.30;76.70
22383;DHT22;11359;45.802;13.530;2022-09-09T05:59:33;23.30;76.70
22383;DHT22;11359;45.802;13.530;2022-09-09T06:01:59;23.30;76.70
22383;DHT22;11359;45.802;13.530;2022-09-09T06:04:24;23.30;76.70
22383;DHT22;11359;45.802;13.530;2022-09-09T06:06:50;23.30;76.70
22383;DHT22;11359;45.802;13.530;2022-09-09T06:09:16;23.30;76.70
22383;DHT22;11359;45.802;13.530;2022-09-09T06:11:42;23.30;76.90
22383;DHT22;11359;45.802;13.530;2022-09-09T06:14:08;23.30;76.90
22383;DHT22;11359;45.802;13.530;2022-09-09T06:16:34;23.30;77.60
22383;DHT22;11359;45.802;13.530;2022-09-09T06:19:01;23.30;76.80
22383;DHT22;11359;45.802;13.530;2022-09-09T06:21:34;23.30;76.70
22383;DHT22;11359;45.802;13.530;2022-09-09T06:24:01;23.30;76.60
22383;DHT22;11359;45.802;13.530;2022-09-09T06:26:32;23.30;77.40
22383;DHT22;11359;45.802;13.530;2022-09-09T06:28:58;23.30;76.60
22383;DHT22;11359;45.802;13.530;2022-09-09T06:31:26;23.30;76.60
22383;DHT22;11359;45.802;13.530;2022-09-09T06:33:56;23.30;76.70
22383;DHT22;11359;45.802;13.530;2022-09-09T06:36:36;23.30;76.60
22383;DHT22;11359;45.802;13.530;2022-09-09T06:39:02;23.30;76.60
22383;DHT22;11359;45.802;13.530;2022-09-09T06:41:31;23.30;76.60
22383;DHT22;11359;45.802;13.530;2022-09-09T06:43:57;23.30;76.60
22383;DHT22;11359;45.802;13.530;2022-09-09T06:46:25;23.30;76.50
22383;DHT22;11359;45.802;13.530;2022-09-09T06:48:55;23.20;76.50
22383;DHT22;11359;45.802;13.530;2022-09-09T06:51:23;23.30;76.60
22383;DHT22;11359;45.802;13.530;2022-09-09T06:53:54;23.30;76.60
22383;DHT22;11359;45.802;13.530;2022-09-09T06:58:55;23.30;76.60
22383;DHT22;11359;45.802;13.530;2022-09-09T07:01:26;23.30;76.60
22383;DHT22;11359;45.802;13.530;2022-09-09T07:03:54;23.30;76.60
22383;DHT22;11359;45.802;13.530;2022-09-09T07:06:22;23.30;76.60
22383;DHT22;11359;45.802;13.530;2022-09-09T07:08:57;23.30;76.60
22383;DHT22;11359;45.802;13.530;2022-09-09T07:11:26;23.30;76.50
22383;DHT22;11359;45.802;13.530;2022-09-09T07:13:53;23.30;76.40
22383;DHT22;11359;45.802;13.530;2022-09-09T07:16:20;23.30;76.30
22383;DHT22;11359;45.802;13.530;2022-09-09T07:18:46;23.30;76.30
22383;DHT22;11359;45.802;13.530;2022-09-09T07:21:13;23.30;76.20
22383;DHT22;11359;45.802;13.530;2022-09-09T07:23:40;23.30;76.20
22383;DHT22;11359;45.802;13.530;2022-09-09T07:26:12;23.30;76.20
22383;DHT22;11359;45.802;13.530;2022-09-09T07:28:39;23.20;76.10
22383;DHT22;11359;45.802;13.530;2022-09-09T07:31:07;23.30;76.10
22383;DHT22;11359;45.802;13.530;2022-09-09T07:33:34;23.20;76.80
22383;DHT22;11359;45.802;13.530;2022-09-09T07:36:09;23.20;75.90
22383;DHT22;11359;45.802;13.530;2022-09-09T07:38:43;23.20;75.80
22383;DHT22;11359;45.802;13.530;2022-09-09T07:41:15;23.20;75.80
22383;DHT22;11359;45.802;13.530;2022-09-09T07:43:43;23.20;75.80
22383;DHT22;11359;45.802;13.530;2022-09-09T07:46:09;23.20;75.70
22383;DHT22;11359;45.802;13.530;2022-09-09T07:48:35;23.20;75.50
22383;DHT22;11359;45.802;13.530;2022-09-09T07:51:07;23.20;75.30
22383;DHT22;11359;45.802;13.530;2022-09-09T07:53:33;23.20;75.10
22383;DHT22;11359;45.802;13.530;2022-09-09T07:56:10;23.10;75.00
22383;DHT22;11359;45.802;13.530;2022-09-09T07:58:38;23.10;75.00
22383;DHT22;11359;45.802;13.530;2022-09-09T08:01:09;23.10;74.90
22383;DHT22;11359;45.802;13.530;2022-09-09T08:03:36;23.10;74.90
22383;DHT22;11359;45.802;13.530;2022-09-09T08:06:03;23.10;74.90
22383;DHT22;11359;45.802;13.530;2022-09-09T08:08:30;23.20;74.90
22383;DHT22;11359;45.802;13.530;2022-09-09T08:11:11;23.20;74.90
22383;DHT22;11359;45.802;13.530;2022-09-09T08:13:37;23.20;74.90
22383;DHT22;11359;45.802;13.530;2022-09-09T08:16:18;23.20;74.90
22383;DHT22;11359;45.802;13.530;2022-09-09T08:18:43;23.20;74.90
22383;DHT22;11359;45.802;13.530;2022-09-09T08:21:14;23.20;74.90
22383;DHT22;11359;45.802;13.530;2022-09-09T08:23:44;23.20;74.90
22383;DHT22;11359;45.802;13.530;2022-09-09T08:26:13;23.20;74.90
22383;DHT22;11359;45.802;13.530;2022-09-09T08:28:40;23.20;74.90
22383;DHT22;11359;45.802;13.530;2022-09-09T08:31:16;23.30;74.90
22383;DHT22;11359;45.802;13.530;2022-09-09T08:33:42;23.30;74.90
22383;DHT22;11359;45.802;13.530;2022-09-09T08:36:12;23.20;74.80
22383;DHT22;11359;45.802;13.530;2022-09-09T08:38:41;23.30;74.90
22383;DHT22;11359;45.802;13.530;2022-09-09T08:52:53;23.20;74.80
22383;DHT22;11359;45.802;13.530;2022-09-09T08:55:35;23.20;74.90
22383;DHT22;11359;45.802;13.530;2022-09-09T08:58:16;23.20;74.90
22383;DHT22;11359;45.802;13.530;2022-09-09T09:11:59;23.20;74.90
22383;DHT22;11359;45.802;13.530;2022-09-09T09:14:30;23.20;74.90
22383;DHT22;11359;45.802;13.530;2022-09-09T09:17:06;23.30;75.00
22383;DHT22;11359;45.802;13.530;2022-09-09T09:19:36;23.30;75.00
22383;DHT22;11359;45.802;13.530;2022-09-09T09:22:22;23.30;75.00
22383;DHT22;11359;45.802;13.530;2022-09-09T09:24:55;23.30;75.00
22383;DHT22;11359;45.802;13.530;2022-09-09T09:29:57;23.30;75.00
22383;DHT22;11359;45.802;13.530;2022-09-09T09:32:24;23.30;74.80
22383;DHT22;11359;45.802;13.530;2022-09-09T09:34:56;23.20;74.40
22383;DHT22;11359;45.802;13.530;2022-09-09T09:37:29;23.20;74.10
22383;DHT22;11359;45.802;13.530;2022-09-09T09:39:55;23.20;74.00
22383;DHT22;11359;45.802;13.530;2022-09-09T09:42:22;23.10;74.00
22383;DHT22;11359;45.802;13.530;2022-09-09T09:44:48;23.10;74.30
22383;DHT22;11359;45.802;13.530;2022-09-09T09:47:16;23.00;74.50
22383;DHT22;11359;45.802;13.530;2022-09-09T09:49:59;23.00;74.80
22383;DHT22;11359;45.802;13.530;2022-09-09T09:52:31;23.00;74.90
22383;DHT22;11359;45.802;13.530;2022-09-09T09:54:58;23.00;75.00
22383;DHT22;11359;45.802;13.530;2022-09-09T09:57:29;23.00;75.10
22383;DHT22;11359;45.802;13.530;2022-09-09T10:00:17;23.10;75.30
22383;DHT22;11359;45.802;13.530;2022-09-09T10:08:25;23.10;75.60
22383;DHT22;11359;45.802;13.530;2022-09-09T10:19:21;23.30;75.80
22383;DHT22;11359;45.802;13.530;2022-09-09T10:24:56;23.40;75.90
22383;DHT22;11359;45.802;13.530;2022-09-09T10:27:48;23.50;76.00
22383;DHT22;11359;45.802;13.530;2022-09-09T10:33:15;23.60;75.90
22383;DHT22;11359;45.802;13.530;2022-09-09T10:38:45;23.60;75.60
22383;DHT22;11359;45.802;13.530;2022-09-09T10:42:04;23.70;76.30
22383;DHT22;11359;45.802;13.530;2022-09-09T10:55:52;23.80;75.60
22383;DHT22;11359;45.802;13.530;2022-09-09T10:58:44;23.90;76.60
22383;DHT22;11359;45.802;13.530;2022-09-09T11:01:32;23.90;75.90
22383;DHT22;11359;45.802;13.530;2022-09-09T11:04:05;23.80;76.00
22383;DHT22;11359;45.802;13.530;2022-09-09T11:06:40;23.90;76.20
22383;DHT22;11359;45.802;13.530;2022-09-09T11:09:16;24.00;76.30
22383;DHT22;11359;45.802;13.530;2022-09-09T11:15:04;24.10;76.30
22383;DHT22;11359;45.802;13.530;2022-09-09T11:17:09;24.10;76.20
22383;DHT22;11359;45.802;13.530;2022-09-09T11:19:40;24.10;76.10
22383;DHT22;11359;45.802;13.530;2022-09-09T11:25:17;24.20;75.90
22383;DHT22;11359;45.802;13.530;2022-09-09T11:42:20;24.40;75.80
22383;DHT22;11359;45.802;13.530;2022-09-09T11:44:46;24.40;75.70
22383;DHT22;11359;45.802;13.530;2022-09-09T11:47:28;24.50;75.60
22383;DHT22;11359;45.802;13.530;2022-09-09T11:52:45;24.60;75.50
22383;DHT22;11359;45.802;13.530;2022-09-09T11:55:33;24.60;75.40
22383;DHT22;11359;45.802;13.530;2022-09-09T11:58:16;24.60;75.40
22383;DHT22;11359;45.802;13.530;2022-09-09T12:00:47;24.60;75.30
22383;DHT22;11359;45.802;13.530;2022-09-09T12:06:31;24.70;75.20
22383;DHT22;11359;45.802;13.530;2022-09-09T12:11:38;24.80;75.20
22383;DHT22;11359;45.802;13.530;2022-09-09T12:14:03;24.90;75.20
22383;DHT22;11359;45.802;13.530;2022-09-09T12:16:33;24.90;75.10
22383;DHT22;11359;45.802;13.530;2022-09-09T12:19:14;25.00;75.00
22383;DHT22;11359;45.802;13.530;2022-09-09T12:21:58;25.00;74.90
22383;DHT22;11359;45.802;13.530;2022-09-09T12:27:12;25.10;74.40
22383;DHT22;11359;45.802;13.530;2022-09-09T12:32:15;25.20;74.20
22383;DHT22;11359;45.802;13.530;2022-09-09T12:34:53;25.20;74.10
22383;DHT22;11359;45.802;13.530;2022-09-09T12:40:06;25.30;73.90
22383;DHT22;11359;45.802;13.530;2022-09-09T12:42:32;25.40;73.80
22383;DHT22;11359;45.802;13.530;2022-09-09T12:45:03;25.40;73.70
22383;DHT22;11359;45.802;13.530;2022-09-09T12:47:56;25.50;73.70
22383;DHT22;11359;45.802;13.530;2022-09-09T12:50:29;25.50;73.40
22383;DHT22;11359;45.802;13.530;2022-09-09T12:53:02;25.60;73.20
22383;DHT22;11359;45.802;13.530;2022-09-09T12:55:31;25.60;73.10
22383;DHT22;11359;45.802;13.530;2022-09-09T12:57:59;25.60;72.80
22383;DHT22;11359;45.802;13.530;2022-09-09T13:00:55;25.70;72.70
22383;DHT22;11359;45.802;13.530;2022-09-09T13:03:22;25.80;72.60
22383;DHT22;11359;45.802;13.530;2022-09-09T13:05:49;25.80;72.60
22383;DHT22;11359;45.802;13.530;2022-09-09T13:08:16;25.90;72.60
22383;DHT22;11359;45.802;13.530;2022-09-09T13:11:01;26.00;72.60
22383;DHT22;11359;45.802;13.530;2022-09-09T13:13:35;26.00;72.60
22383;DHT22;11359;45.802;13.530;2022-09-09T13:16:02;26.10;72.60
22383;DHT22;11359;45.802;13.530;2022-09-09T13:18:35;26.20;72.50
22383;DHT22;11359;45.802;13.530;2022-09-09T13:21:01;26.30;72.60
22383;DHT22;11359;45.802;13.530;2022-09-09T13:23:30;26.40;72.50
22383;DHT22;11359;45.802;13.530;2022-09-09T13:26:01;26.50;72.60
22383;DHT22;11359;45.802;13.530;2022-09-09T13:28:29;26.60;72.50
22383;DHT22;11359;45.802;13.530;2022-09-09T13:31:03;26.80;72.30
22383;DHT22;11359;45.802;13.530;2022-09-09T13:33:34;26.80;72.10
22383;DHT22;11359;45.802;13.530;2022-09-09T13:36:09;27.00;72.10
22383;DHT22;11359;45.802;13.530;2022-09-09T13:38:36;27.10;72.10
22383;DHT22;11359;45.802;13.530;2022-09-09T13:41:08;27.20;71.90
22383;DHT22;11359;45.802;13.530;2022-09-09T13:43:44;27.30;71.70
22383;DHT22;11359;45.802;13.530;2022-09-09T13:46:34;27.40;71.70
22383;DHT22;11359;45.802;13.530;2022-09-09T13:54:06;27.60;70.70
22383;DHT22;11359;45.802;13.530;2022-09-09T13:56:35;27.70;70.30
22383;DHT22;11359;45.802;13.530;2022-09-09T13:59:02;27.70;70.00
22383;DHT22;11359;45.802;13.530;2022-09-09T14:01:28;27.70;69.40
22383;DHT22;11359;45.802;13.530;2022-09-09T14:03:54;27.70;69.00
22383;DHT22;11359;45.802;13.530;2022-09-09T14:06:20;27.70;68.80
22383;DHT22;11359;45.802;13.530;2022-09-09T14:08:49;27.70;68.50
22383;DHT22;11359;45.802;13.530;2022-09-09T14:11:16;27.60;68.20
22383;DHT22;11359;45.802;13.530;2022-09-09T14:13:42;27.60;68.10
22383;DHT22;11359;45.802;13.530;2022-09-09T14:16:08;27.60;67.90
22383;DHT22;11359;45.802;13.530;2022-09-09T14:18:33;27.50;67.70
22383;DHT22;11359;45.802;13.530;2022-09-09T14:20:59;27.50;67.70
22383;DHT22;11359;45.802;13.530;2022-09-09T14:23:25;27.50;67.70
22383;DHT22;11359;45.802;13.530;2022-09-09T14:25:51;27.50;67.60
22383;DHT22;11359;45.802;13.530;2022-09-09T14:28:17;27.50;67.60
22383;DHT22;11359;45.802;13.530;2022-09-09T14:30:43;27.50;67.60
22383;DHT22;11359;45.802;13.530;2022-09-09T14:33:12;27.50;67.60
22383;DHT22;11359;45.802;13.530;2022-09-09T14:35:38;27.50;67.60
22383;DHT22;11359;45.802;13.530;2022-09-09T14:38:06;27.50;67.50
22383;DHT22;11359;45.802;13.530;2022-09-09T14:40:33;27.50;67.50
22383;DHT22;11359;45.802;13.530;2022-09-09T14:42:59;27.50;67.40
22383;DHT22;11359;45.802;13.530;2022-09-09T14:45:25;27.40;67.10
22383;DHT22;11359;45.802;13.530;2022-09-09T14:47:51;27.40;66.60
22383;DHT22;11359;45.802;13.530;2022-09-09T14:50:21;27.30;65.60
22383;DHT22;11359;45.802;13.530;2022-09-09T14:52:46;27.20;65.10
22383;DHT22;11359;45.802;13.530;2022-09-09T14:55:13;27.20;64.70
22383;DHT22;11359;45.802;13.530;2022-09-09T14:57:39;27.10;64.20
22383;DHT22;11359;45.802;13.530;2022-09-09T15:00:07;27.00;63.80
22383;DHT22;11359;45.802;13.530;2022-09-09T15:02:33;26.90;63.40
22383;DHT22;11359;45.802;13.530;2022-09-09T15:04:59;26.80;63.00
22383;DHT22;11359;45.802;13.530;2022-09-09T15:07:25;26.70;63.00
22383;DHT22;11359;45.802;13.530;2022-09-09T15:09:52;26.70;63.00
22383;DHT22;11359;45.802;13.530;2022-09-09T15:12:18;26.60;62.80
22383;DHT22;11359;45.802;13.530;2022-09-09T15:14:45;26.50;62.60
22383;DHT22;11359;45.802;13.530;2022-09-09T15:17:11;26.30;62.60
22383;DHT22;11359;45.802;13.530;2022-09-09T15:19:37;26.10;62.90
22383;DHT22;11359;45.802;13.530;2022-09-09T15:22:04;25.90;64.10
22383;DHT22;11359;45.802;13.530;2022-09-09T15:24:31;25.70;66.30
22383;DHT22;11359;45.802;13.530;2022-09-09T15:26:57;25.50;68.80
22383;DHT22;11359;45.802;13.530;2022-09-09T15:29:23;25.40;70.90
22383;DHT22;11359;45.802;13.530;2022-09-09T15:31:49;25.30;72.80
22383;DHT22;11359;45.802;13.530;2022-09-09T15:34:15;25.20;74.00
22383;DHT22;11359;45.802;13.530;2022-09-09T15:36:42;25.20;74.80
22383;DHT22;11359;45.802;13.530;2022-09-09T15:39:10;25.10;75.10
22383;DHT22;11359;45.802;13.530;2022-09-09T15:41:38;25.00;75.50
22383;DHT22;11359;45.802;13.530;2022-09-09T15:44:04;25.00;76.10
22383;DHT22;11359;45.802;13.530;2022-09-09T15:46:35;24.90;76.70
22383;DHT22;11359;45.802;13.530;2022-09-09T15:49:13;24.90;77.40
22383;DHT22;11359;45.802;13.530;2022-09-09T15:51:41;24.80;78.00
22383;DHT22;11359;45.802;13.530;2022-09-09T15:54:09;24.80;78.50
22383;DHT22;11359;45.802;13.530;2022-09-09T15:56:34;24.70;78.90
22383;DHT22;11359;45.802;13.530;2022-09-09T15:59:01;24.70;79.40
22383;DHT22;11359;45.802;13.530;2022-09-09T16:01:28;24.70;79.70
22383;DHT22;11359;45.802;13.530;2022-09-09T16:03:56;24.70;80.10
22383;DHT22;11359;45.802;13.530;2022-09-09T16:06:23;24.70;80.30
22383;DHT22;11359;45.802;13.530;2022-09-09T16:08:51;24.60;80.40
22383;DHT22;11359;45.802;13.530;2022-09-09T16:11:20;24.60;80.60
22383;DHT22;11359;45.802;13.530;2022-09-09T16:13:48;24.60;80.90
22383;DHT22;11359;45.802;13.530;2022-09-09T16:16:15;24.60;81.20
22383;DHT22;11359;45.802;13.530;2022-09-09T16:18:46;24.60;81.40
22383;DHT22;11359;45.802;13.530;2022-09-09T16:23:50;24.60;81.80
22383;DHT22;11359;45.802;13.530;2022-09-09T16:26:17;24.60;82.00
22383;DHT22;11359;45.802;13.530;2022-09-09T16:28:43;24.60;82.10
22383;DHT22;11359;45.802;13.530;2022-09-09T16:31:29;24.60;82.10
22383;DHT22;11359;45.802;13.530;2022-09-09T16:33:56;24.60;82.20
22383;DHT22;11359;45.802;13.530;2022-09-09T16:36:22;24.60;82.20
22383;DHT22;11359;45.802;13.530;2022-09-09T16:38:55;24.60;82.30
22383;DHT22;11359;45.802;13.530;2022-09-09T16:41:23;24.60;82.60
22383;DHT22;11359;45.802;13.530;2022-09-09T16:44:09;24.60;82.70
22383;DHT22;11359;45.802;13.530;2022-09-09T16:46:38;24.60;82.80
22383;DHT22;11359;45.802;13.530;2022-09-09T16:49:06;24.60;83.10
22383;DHT22;11359;45.802;13.530;2022-09-09T16:51:38;24.60;83.30
22383;DHT22;11359;45.802;13.530;2022-09-09T16:54:05;24.60;83.40
22383;DHT22;11359;45.802;13.530;2022-09-09T16:56:34;24.70;83.60
22383;DHT22;11359;45.802;13.530;2022-09-09T16:59:04;24.60;83.60
22383;DHT22;11359;45.802;13.530;2022-09-09T17:01:33;24.70;83.80
22383;DHT22;11359;45.802;13.530;2022-09-09T17:04:02;24.60;83.90
22383;DHT22;11359;45.802;13.530;2022-09-09T17:06:30;24.70;84.80
22383;DHT22;11359;45.802;13.530;2022-09-09T17:08:58;24.70;84.00
22383;DHT22;11359;45.802;13.530;2022-09-09T17:11:24;24.70;83.90
22383;DHT22;11359;45.802;13.530;2022-09-09T17:13:52;24.70;83.90
22383;DHT22;11359;45.802;13.530;2022-09-09T17:16:21;24.70;83.60
22383;DHT22;11359;45.802;13.530;2022-09-09T17:18:48;24.70;83.50
22383;DHT22;11359;45.802;13.530;2022-09-09T17:21:16;24.60;83.20
22383;DHT22;11359;45.802;13.530;2022-09-09T17:23:43;24.60;83.10
22383;DHT22;11359;45.802;13.530;2022-09-09T17:26:12;24.60;83.00
22383;DHT22;11359;45.802;13.530;2022-09-09T17:28:39;24.50;82.80
22383;DHT22;11359;45.802;13.530;2022-09-09T17:31:07;24.50;82.70
22383;DHT22;11359;45.802;13.530;2022-09-09T17:33:34;24.40;82.70
22383;DHT22;11359;45.802;13.530;2022-09-09T17:36:02;24.40;82.60
22383;DHT22;11359;45.802;13.530;2022-09-09T17:38:28;24.30;82.50
22383;DHT22;11359;45.802;13.530;2022-09-09T17:43:37;24.30;82.40
22383;DHT22;11359;45.802;13.530;2022-09-09T17:46:16;24.20;82.30
22383;DHT22;11359;45.802;13.530;2022-09-09T17:50:23;24.10;81.40
22383;DHT22;11359;45.802;13.530;2022-09-09T17:52:49;24.10;82.00
22383;DHT22;11359;45.802;13.530;2022-09-09T17:55:15;24.00;82.00
22383;DHT22;11359;45.802;13.530;2022-09-09T17:57:42;23.90;82.00
22383;DHT22;11359;45.802;13.530;2022-09-09T18:00:08;23.90;82.00
22383;DHT22;11359;45.802;13.530;2022-09-09T18:02:34;23.90;82.00
22383;DHT22;11359;45.802;13.530;2022-09-09T18:05:00;23.80;82.10
22383;DHT22;11359;45.802;13.530;2022-09-09T18:07:26;23.80;82.20
22383;DHT22;11359;45.802;13.530;2022-09-09T18:09:52;23.80;82.20
22383;DHT22;11359;45.802;13.530;2022-09-09T18:12:18;23.80;82.30
22383;DHT22;11359;45.802;13.530;2022-09-09T18:14:43;23.80;82.40
22383;DHT22;11359;45.802;13.530;2022-09-09T18:17:09;23.70;82.40
22383;DHT22;11359;45.802;13.530;2022-09-09T18:19:35;23.70;82.50
22383;DHT22;11359;45.802;13.530;2022-09-09T18:22:03;23.70;82.50
22383;DHT22;11359;45.802;13.530;2022-09-09T18:24:30;23.70;83.20
22383;DHT22;11359;45.802;13.530;2022-09-09T18:26:56;23.70;82.50
22383;DHT22;11359;45.802;13.530;2022-09-09T18:29:23;23.60;82.40
22383;DHT22;11359;45.802;13.530;2022-09-09T18:31:53;23.60;82.50
22383;DHT22;11359;45.802;13.530;2022-09-09T18:34:20;23.60;82.30
22383;DHT22;11359;45.802;13.530;2022-09-09T18:36:49;23.60;82.40
22383;DHT22;11359;45.802;13.530;2022-09-09T18:39:19;23.60;82.30
22383;DHT22;11359;45.802;13.530;2022-09-09T18:41:47;23.60;82.20
22383;DHT22;11359;45.802;13.530;2022-09-09T18:44:16;23.60;82.20
22383;DHT22;11359;45.802;13.530;2022-09-09T18:46:43;23.60;82.00
22383;DHT22;11359;45.802;13.530;2022-09-09T18:49:09;23.50;81.90
22383;DHT22;11359;45.802;13.530;2022-09-09T18:51:38;23.50;82.00
22383;DHT22;11359;45.802;13.530;2022-09-09T18:54:09;23.50;82.00
22383;DHT22;11359;45.802;13.530;2022-09-09T18:56:36;23.40;81.90
22383;DHT22;11359;45.802;13.530;2022-09-09T18:59:04;23.40;81.90
22383;DHT22;11359;45.802;13.530;2022-09-09T19:01:30;23.40;81.80
22383;DHT22;11359;45.802;13.530;2022-09-09T19:03:57;23.40;81.80
22383;DHT22;11359;45.802;13.530;2022-09-09T19:06:25;23.40;81.80
22383;DHT22;11359;45.802;13.530;2022-09-09T19:08:52;23.30;81.70
22383;DHT22;11359;45.802;13.530;2022-09-09T19:11:21;23.30;81.70
22383;DHT22;11359;45.802;13.530;2022-09-09T19:13:58;23.30;81.60
22383;DHT22;11359;45.802;13.530;2022-09-09T19:16:27;23.30;81.60
22383;DHT22;11359;45.802;13.530;2022-09-09T19:18:54;23.30;81.70
22383;DHT22;11359;45.802;13.530;2022-09-09T19:21:24;23.30;81.70
22383;DHT22;11359;45.802;13.530;2022-09-09T19:23:59;23.20;81.60
22383;DHT22;11359;45.802;13.530;2022-09-09T19:26:26;23.20;81.50
22383;DHT22;11359;45.802;13.530;2022-09-09T19:28:52;23.20;81.40
22383;DHT22;11359;45.802;13.530;2022-09-09T19:31:19;23.20;81.40
22383;DHT22;11359;45.802;13.530;2022-09-09T19:33:46;23.20;81.30
22383;DHT22;11359;45.802;13.530;2022-09-09T19:36:14;23.10;81.30
22383;DHT22;11359;45.802;13.530;2022-09-09T19:38:43;23.10;81.30
22383;DHT22;11359;45.802;13.530;2022-09-09T19:41:12;23.10;81.20
22383;DHT22;11359;45.802;13.530;2022-09-09T19:43:39;23.10;81.20
22383;DHT22;11359;45.802;13.530;2022-09-09T19:46:07;23.10;81.10
22383;DHT22;11359;45.802;13.530;2022-09-09T19:48:35;23.10;81.10
22383;DHT22;11359;45.802;13.530;2022-09-09T19:51:21;23.10;81.10
22383;DHT22;11359;45.802;13.530;2022-09-09T19:53:52;23.10;81.10
22383;DHT22;11359;45.802;13.530;2022-09-09T19:56:21;23.10;80.90
22383;DHT22;11359;45.802;13.530;2022-09-09T19:58:48;23.10;80.90
22383;DHT22;11359;45.802;13.530;2022-09-09T20:03:51;23.00;80.60
22383;DHT22;11359;45.802;13.530;2022-09-09T20:06:20;23.00;80.50
22383;DHT22;11359;45.802;13.530;2022-09-09T20:08:48;23.00;80.50
22383;DHT22;11359;45.802;13.530;2022-09-09T20:11:16;22.90;80.40
22383;DHT22;11359;45.802;13.530;2022-09-09T20:13:42;22.90;80.30
22383;DHT22;11359;45.802;13.530;2022-09-09T20:16:30;22.90;80.30
22383;DHT22;11359;45.802;13.530;2022-09-09T20:18:58;22.90;80.30
22383;DHT22;11359;45.802;13.530;2022-09-09T20:21:27;22.90;80.30
22383;DHT22;11359;45.802;13.530;2022-09-09T20:23:55;22.90;80.20
22383;DHT22;11359;45.802;13.530;2022-09-09T20:26:22;22.90;80.10
22383;DHT22;11359;45.802;13.530;2022-09-09T20:28:52;22.90;80.10
22383;DHT22;11359;45.802;13.530;2022-09-09T20:31:26;22.80;80.10
22383;DHT22;11359;45.802;13.530;2022-09-09T20:33:54;22.80;80.00
22383;DHT22;11359;45.802;13.530;2022-09-09T20:36:25;22.80;80.10
22383;DHT22;11359;45.802;13.530;2022-09-09T20:38:56;22.80;80.00
22383;DHT22;11359;45.802;13.530;2022-09-09T20:41:26;22.80;79.90
22383;DHT22;11359;45.802;13.530;2022-09-09T20:43:55;22.80;79.90
22383;DHT22;11359;45.802;13.530;2022-09-09T20:46:24;22.80;79.90
22383;DHT22;11359;45.802;13.530;2022-09-09T20:48:50;22.80;79.80
22383;DHT22;11359;45.802;13.530;2022-09-09T20:51:17;22.80;79.80
22383;DHT22;11359;45.802;13.530;2022-09-09T20:53:53;22.70;79.60
22383;DHT22;11359;45.802;13.530;2022-09-09T20:56:25;22.80;79.60
22383;DHT22;11359;45.802;13.530;2022-09-09T20:58:51;22.70;79.50
22383;DHT22;11359;45.802;13.530;2022-09-09T21:01:18;22.70;79.40
22383;DHT22;11359;45.802;13.530;2022-09-09T21:03:44;22.70;79.40
22383;DHT22;11359;45.802;13.530;2022-09-09T21:06:11;22.70;79.40
22383;DHT22;11359;45.802;13.530;2022-09-09T21:08:37;22.70;79.40
22383;DHT22;11359;45.802;13.530;2022-09-09T21:11:04;22.60;79.30
22383;DHT22;11359;45.802;13.530;2022-09-09T21:13:31;22.70;79.30
22383;DHT22;11359;45.802;13.530;2022-09-09T21:15:57;22.60;79.20
22383;DHT22;11359;45.802;13.530;2022-09-09T21:18:24;22.60;79.20
22383;DHT22;11359;45.802;13.530;2022-09-09T21:20:52;22.70;79.20
22383;DHT22;11359;45.802;13.530;2022-09-09T21:23:19;22.60;79.20
22383;DHT22;11359;45.802;13.530;2022-09-09T21:25:45;22.60;79.10
22383;DHT22;11359;45.802;13.530;2022-09-09T21:28:12;22.60;79.10
22383;DHT22;11359;45.802;13.530;2022-09-09T21:30:38;22.60;79.00
22383;DHT22;11359;45.802;13.530;2022-09-09T21:33:10;22.60;79.00
22383;DHT22;11359;45.802;13.530;2022-09-09T21:35:40;22.60;79.10
22383;DHT22;11359;45.802;13.530;2022-09-09T21:38:07;22.60;79.00
22383;DHT22;11359;45.802;13.530;2022-09-09T21:40:37;22.60;78.60
22383;DHT22;11359;45.802;13.530;2022-09-09T21:43:04;22.60;78.50
22383;DHT22;11359;45.802;13.530;2022-09-09T21:45:30;22.60;78.40
22383;DHT22;11359;45.802;13.530;2022-09-09T21:47:56;22.60;78.20
22383;DHT22;11359;45.802;13.530;2022-09-09T21:50:21;22.60;78.10
22383;DHT22;11359;45.802;13.530;2022-09-09T21:52:47;22.50;77.80
22383;DHT22;11359;45.802;13.530;2022-09-09T21:55:14;22.50;77.50
22383;DHT22;11359;45.802;13.530;2022-09-09T21:57:39;22.50;77.20
22383;DHT22;11359;45.802;13.530;2022-09-09T22:00:06;22.50;77.20
22383;DHT22;11359;45.802;13.530;2022-09-09T22:02:45;22.40;77.10
22383;DHT22;11359;45.802;13.530;2022-09-09T22:05:11;22.40;77.00
22383;DHT22;11359;45.802;13.530;2022-09-09T22:07:37;22.30;76.90
22383;DHT22;11359;45.802;13.530;2022-09-09T22:10:04;22.30;76.90
22383;DHT22;11359;45.802;13.530;2022-09-09T22:12:30;22.30;76.90
22383;DHT22;11359;45.802;13.530;2022-09-09T22:14:56;22.30;76.90
22383;DHT22;11359;45.802;13.530;2022-09-09T22:17:22;22.30;76.80
22383;DHT22;11359;45.802;13.530;2022-09-09T22:19:50;22.30;76.90
22383;DHT22;11359;45.802;13.530;2022-09-09T22:22:16;22.30;76.80
22383;DHT22;11359;45.802;13.530;2022-09-09T22:24:43;22.20;76.60
22383;DHT22;11359;45.802;13.530;2022-09-09T22:27:09;22.20;76.50
22383;DHT22;11359;45.802;13.530;2022-09-09T22:29:35;22.20;76.40
22383;DHT22;11359;45.802;13.530;2022-09-09T22:32:01;22.20;76.30